Time;durP1;ratioP1;P1;durP2;ratioP2;P2;SDS_P1;SDS_P2;PMS_P1;PMS_P2;Temp;Humidity;BMP_temperature;BMP_pressure;BME280_temperature;BME280_humidity;BME280_pressure;Samples;Min_cycle;Max_cycle;Signal;HPM_P1;HPM_P2
2023/02/07 00:01:23;;;;;;;22.70;7.22;;;-5.30;100.00;;;;;;5004226;28;20152;-76
2023/02/07 00:03:51;;;;;;;17.58;7.45;;;-5.30;100.00;;;;;;4985406;28;20614;-76
2023/02/07 00:06:27;;;;;;;29.60;9.20;;;-5.40;100.00;;;;;;4984455;28;20050;-76
2023/02/07 00:08:54;;;;;;;23.00;7.53;;;-5.40;100.00;;;;;;4982613;28;20042;-76
2023/02/07 00:11:22;;;;;;;22.17;7.95;;;-5.40;100.00;;;;;;4986261;28;20050;-76
2023/02/07 00:13:54;;;;;;;25.08;9.40;;;-5.40;100.00;;;;;;5008634;28;20491;-76
2023/02/07 00:16:21;;;;;;;26.58;8.57;;;-5.50;100.00;;;;;;4984735;28;20061;-76
2023/02/07 00:18:48;;;;;;;21.35;8.45;;;-5.50;100.00;;;;;;4987977;28;20053;-77
2023/02/07 00:21:19;;;;;;;25.40;7.10;;;-5.50;100.00;;;;;;4986205;28;20050;-76
2023/02/07 00:23:46;;;;;;;19.30;7.07;;;-5.50;100.00;;;;;;4989355;28;20054;-77
2023/02/07 00:26:15;;;;;;;19.55;7.75;;;-5.50;100.00;;;;;;4988299;28;20059;-77
2023/02/07 00:28:41;;;;;;;24.30;7.82;;;-5.50;100.00;;;;;;4985175;28;20387;-77
2023/02/07 00:31:20;;;;;;;22.38;6.97;;;-5.60;100.00;;;;;;4985748;28;20056;-75
2023/02/07 00:33:49;;;;;;;21.65;8.05;;;-5.60;100.00;;;;;;4998606;28;20100;-76
2023/02/07 00:36:21;;;;;;;19.58;7.75;;;-5.70;100.00;;;;;;5004447;28;20061;-76
2023/02/07 00:38:49;;;;;;;21.30;7.35;;;-5.70;100.00;;;;;;4986551;28;20050;-76
2023/02/07 00:41:17;;;;;;;33.35;7.70;;;-5.70;100.00;;;;;;4987391;28;20061;-76
2023/02/07 00:43:46;;;;;;;23.00;8.02;;;-5.70;100.00;;;;;;4987985;28;20060;-75
2023/02/07 00:46:13;;;;;;;25.25;7.88;;;-5.70;100.00;;;;;;4985344;28;20065;-76
2023/02/07 00:48:40;;;;;;;24.30;7.70;;;-5.70;100.00;;;;;;4984673;28;20100;-75
2023/02/07 00:51:08;;;;;;;17.35;7.35;;;-5.70;100.00;;;;;;5009663;28;20085;-75
2023/02/07 00:53:35;;;;;;;23.30;7.50;;;-5.70;100.00;;;;;;4985689;28;20046;-75
2023/02/07 00:56:02;;;;;;;18.40;7.25;;;-5.70;100.00;;;;;;4986201;28;20042;-75
2023/02/07 00:58:29;;;;;;;21.85;8.43;;;-5.70;100.00;;;;;;4977257;28;20054;-75
2023/02/07 01:00:56;;;;;;;14.05;6.82;;;-5.70;100.00;;;;;;4986880;28;20049;-76
2023/02/07 01:03:23;;;;;;;22.95;7.72;;;-5.70;100.00;;;;;;4985928;28;20475;-76
2023/02/07 01:05:50;;;;;;;18.48;8.00;;;-5.70;100.00;;;;;;4986714;28;20129;-75
2023/02/07 01:08:17;;;;;;;19.40;8.07;;;-5.70;100.00;;;;;;4985702;28;20053;-76
2023/02/07 01:10:45;;;;;;;20.17;7.20;;;-5.80;100.00;;;;;;4983864;28;20064;-77
2023/02/07 01:13:12;;;;;;;25.23;7.47;;;-5.80;100.00;;;;;;4990994;28;20057;-76
2023/02/07 01:15:43;;;;;;;19.80;7.85;;;-5.80;100.00;;;;;;4984132;28;20046;-76
2023/02/07 01:18:11;;;;;;;18.20;7.38;;;-5.80;100.00;;;;;;4985678;28;20487;-76
2023/02/07 01:20:38;;;;;;;25.85;8.23;;;-5.80;100.00;;;;;;4987042;28;20065;-77
2023/02/07 01:23:05;;;;;;;19.70;6.88;;;-5.80;100.00;;;;;;5002775;28;20058;-77
2023/02/07 01:25:32;;;;;;;16.08;6.78;;;-5.80;100.00;;;;;;4991524;28;20050;-76
2023/02/07 01:27:59;;;;;;;15.90;6.85;;;-5.90;100.00;;;;;;4992005;28;20053;-76
2023/02/07 01:30:26;;;;;;;14.95;6.82;;;-5.90;100.00;;;;;;5005877;28;20046;-77
2023/02/07 01:32:53;;;;;;;23.00;6.85;;;-5.90;100.00;;;;;;5012810;28;20100;-76
2023/02/07 01:35:20;;;;;;;33.10;6.90;;;-6.00;100.00;;;;;;4989281;28;20497;-76
2023/02/07 01:37:47;;;;;;;17.63;6.47;;;-6.00;100.00;;;;;;4989376;28;20056;-76
2023/02/07 01:40:14;;;;;;;19.25;6.72;;;-6.10;100.00;;;;;;4987843;28;20061;-76
2023/02/07 01:42:41;;;;;;;20.27;6.93;;;-6.10;100.00;;;;;;5007535;28;20535;-76
2023/02/07 01:45:08;;;;;;;18.95;6.05;;;-6.20;100.00;;;;;;4992829;28;20554;-76
2023/02/07 01:47:37;;;;;;;22.23;6.65;;;-6.20;100.00;;;;;;4990765;28;20057;-76
2023/02/07 01:50:04;;;;;;;18.85;6.63;;;-6.20;100.00;;;;;;5005983;28;20049;-76
2023/02/07 01:52:36;;;;;;;19.20;6.45;;;-6.30;100.00;;;;;;4990884;28;20327;-76
2023/02/07 01:55:16;;;;;;;17.88;6.75;;;-6.30;100.00;;;;;;4991401;28;20041;-76
2023/02/07 01:57:44;;;;;;;12.52;6.45;;;-6.20;100.00;;;;;;4990434;28;20050;-77
2023/02/07 02:00:14;;;;;;;22.05;7.57;;;-6.30;100.00;;;;;;4988554;28;20053;-77
2023/02/07 02:02:41;;;;;;;14.60;6.88;;;-6.30;100.00;;;;;;4987552;28;20056;-77
2023/02/07 02:05:10;;;;;;;15.60;6.40;;;-6.30;100.00;;;;;;4988172;28;20049;-77
2023/02/07 02:07:38;;;;;;;14.48;6.22;;;-6.30;100.00;;;;;;5006208;28;20048;-77
2023/02/07 02:10:14;;;;;;;26.70;6.63;;;-6.30;100.00;;;;;;5004693;28;20091;-77
2023/02/07 02:13:02;;;;;;;40.10;6.93;;;-6.30;100.00;;;;;;4987184;28;20056;-76
2023/02/07 02:15:35;;;;;;;22.63;7.00;;;-6.30;100.00;;;;;;5005801;28;20057;-76
2023/02/07 02:18:34;;;;;;;15.20;6.40;;;-6.30;100.00;;;;;;4991761;28;20041;-76
2023/02/07 02:21:16;;;;;;;16.08;6.78;;;-6.30;100.00;;;;;;4987876;28;20060;-76
2023/02/07 02:24:10;;;;;;;20.38;7.22;;;-6.30;100.00;;;;;;5009901;28;20061;-77
2023/02/07 02:26:52;;;;;;;13.57;6.32;;;-6.30;100.00;;;;;;4987378;28;20042;-77
2023/02/07 02:29:37;;;;;;;17.23;6.80;;;-6.30;100.00;;;;;;4987246;28;20057;-77
2023/02/07 02:32:37;;;;;;;21.52;7.53;;;-6.30;100.00;;;;;;4994399;28;20053;-76
2023/02/07 02:35:22;;;;;;;16.75;6.97;;;-6.30;100.00;;;;;;5006286;28;20049;-76
2023/02/07 02:37:58;;;;;;;19.92;8.02;;;-6.30;100.00;;;;;;4987309;28;20081;-77
2023/02/07 02:40:46;;;;;;;24.85;7.60;;;-6.30;100.00;;;;;;4987056;28;20064;-77
2023/02/07 02:43:31;;;;;;;34.60;11.60;;;-6.20;100.00;;;;;;4987915;28;20136;-76
2023/02/07 02:46:05;;;;;;;22.45;8.45;;;-6.20;100.00;;;;;;4989733;28;20061;-76
2023/02/07 02:48:34;;;;;;;26.90;8.53;;;-6.10;100.00;;;;;;4984058;28;20049;-77
2023/02/07 02:51:01;;;;;;;23.15;8.00;;;-6.10;100.00;;;;;;5004557;28;20297;-76
2023/02/07 02:53:28;;;;;;;21.08;8.05;;;-6.10;100.00;;;;;;4987754;28;20042;-77
2023/02/07 02:56:07;;;;;;;26.60;8.10;;;-6.10;100.00;;;;;;4987144;28;20458;-76
2023/02/07 02:58:54;;;;;;;23.20;8.75;;;-6.10;100.00;;;;;;4997210;28;20557;-76
2023/02/07 03:01:51;;;;;;;19.13;7.68;;;-6.20;100.00;;;;;;5003591;28;20088;-77
2023/02/07 03:04:27;;;;;;;21.25;6.05;;;-6.20;100.00;;;;;;4989079;28;20049;-76
2023/02/07 03:07:28;;;;;;;21.13;7.30;;;-6.20;100.00;;;;;;4990288;28;20468;-76
2023/02/07 03:09:54;;;;;;;14.85;5.80;;;-6.30;100.00;;;;;;4999878;28;20159;-76
2023/02/07 03:12:53;;;;;;;18.45;6.57;;;-6.30;100.00;;;;;;5008524;28;20144;-76
2023/02/07 03:15:32;;;;;;;20.50;6.50;;;-6.40;100.00;;;;;;4975778;28;20517;-76
2023/02/07 03:18:09;;;;;;;22.20;7.13;;;-6.50;100.00;;;;;;4989395;28;20072;-76
2023/02/07 03:20:45;;;;;;;20.50;6.97;;;-6.50;100.00;;;;;;4987716;28;20761;-76
2023/02/07 03:23:15;;;;;;;20.67;6.47;;;-6.50;100.00;;;;;;4985558;28;20077;-76
2023/02/07 03:25:43;;;;;;;25.38;7.25;;;-6.50;100.00;;;;;;4988813;28;20057;-76
2023/02/07 03:28:11;;;;;;;17.23;6.13;;;-6.60;100.00;;;;;;4994066;28;20046;-76
2023/02/07 03:30:41;;;;;;;16.52;6.63;;;-6.60;100.00;;;;;;4986017;28;20042;-76
2023/02/07 03:33:12;;;;;;;21.48;6.97;;;-6.60;100.00;;;;;;5011040;28;20050;-76
2023/02/07 03:35:49;;;;;;;23.98;8.07;;;-6.60;100.00;;;;;;5003088;28;20038;-76
2023/02/07 03:38:16;;;;;;;19.58;7.13;;;-6.60;100.00;;;;;;5005143;28;20064;-76
2023/02/07 03:40:46;;;;;;;22.15;7.85;;;-6.60;100.00;;;;;;4988539;28;20061;-76
2023/02/07 03:43:15;;;;;;;19.13;7.82;;;-6.60;100.00;;;;;;4991309;28;20049;-76
2023/02/07 03:45:42;;;;;;;22.95;7.93;;;-6.60;100.00;;;;;;5003978;28;20049;-76
2023/02/07 03:48:09;;;;;;;39.05;11.60;;;-6.60;100.00;;;;;;5004135;28;20057;-76
2023/02/07 03:50:36;;;;;;;35.40;10.93;;;-6.50;100.00;;;;;;5002458;28;20085;-76
2023/02/07 03:53:03;;;;;;;28.15;9.25;;;-6.50;100.00;;;;;;4991404;28;20054;-76
2023/02/07 03:55:31;;;;;;;23.88;8.93;;;-6.50;100.00;;;;;;5003192;28;20513;-76
2023/02/07 03:57:58;;;;;;;33.25;9.82;;;-6.40;100.00;;;;;;5003703;28;20045;-76
2023/02/07 04:00:25;;;;;;;19.85;7.57;;;-6.40;100.00;;;;;;4985087;28;20257;-76
2023/02/07 04:02:52;;;;;;;23.05;8.80;;;-6.40;100.00;;;;;;5003251;28;20066;-77
2023/02/07 04:05:19;;;;;;;20.40;8.38;;;-6.40;100.00;;;;;;5003492;28;20060;-76
2023/02/07 04:07:46;;;;;;;19.10;9.07;;;-6.40;100.00;;;;;;4985537;28;20350;-76
2023/02/07 04:10:13;;;;;;;22.75;8.60;;;-6.40;100.00;;;;;;5002313;28;20049;-76
2023/02/07 04:12:40;;;;;;;33.50;10.27;;;-6.40;100.00;;;;;;4991252;28;20064;-76
2023/02/07 04:15:08;;;;;;;19.92;7.40;;;-6.50;100.00;;;;;;4985144;28;20418;-76
2023/02/07 04:17:35;;;;;;;22.42;8.50;;;-6.50;100.00;;;;;;5003863;28;20121;-76
2023/02/07 04:20:03;;;;;;;26.10;7.85;;;-6.50;100.00;;;;;;4985321;28;20056;-76
2023/02/07 04:22:30;;;;;;;22.10;8.05;;;-6.50;100.00;;;;;;4984937;28;20050;-76
2023/02/07 04:24:56;;;;;;;19.65;8.23;;;-6.60;100.00;;;;;;5003251;28;20042;-77
2023/02/07 04:27:24;;;;;;;21.88;7.43;;;-6.60;100.00;;;;;;5003295;28;20073;-77
2023/02/07 04:29:51;;;;;;;18.50;7.78;;;-6.50;100.00;;;;;;5002040;28;20052;-77
2023/02/07 04:32:18;;;;;;;22.10;7.45;;;-6.60;100.00;;;;;;5009406;28;20136;-77
2023/02/07 04:34:45;;;;;;;24.10;8.30;;;-6.60;100.00;;;;;;4985784;28;20562;-77
2023/02/07 04:37:11;;;;;;;23.08;8.48;;;-6.60;100.00;;;;;;4988232;28;20195;-77
2023/02/07 04:39:38;;;;;;;23.27;8.07;;;-6.60;100.00;;;;;;5004469;28;20054;-77
2023/02/07 04:42:06;;;;;;;22.73;8.27;;;-6.60;100.00;;;;;;4983322;28;20056;-77
2023/02/07 04:44:33;;;;;;;20.00;7.25;;;-6.60;100.00;;;;;;4990228;28;20053;-77
2023/02/07 04:47:00;;;;;;;20.42;6.90;;;-6.60;100.00;;;;;;4986671;28;20053;-76
2023/02/07 04:49:27;;;;;;;18.52;6.97;;;-6.70;100.00;;;;;;5002785;28;20042;-77
2023/02/07 04:51:53;;;;;;;25.58;7.68;;;-6.70;100.00;;;;;;4985786;28;20049;-77
2023/02/07 04:54:20;;;;;;;23.73;8.95;;;-6.70;100.00;;;;;;5006023;28;20478;-76
2023/02/07 04:56:47;;;;;;;30.17;9.13;;;-6.70;100.00;;;;;;4987186;28;20560;-77
2023/02/07 04:59:14;;;;;;;25.85;9.75;;;-6.70;100.00;;;;;;5008808;28;20537;-77
2023/02/07 05:01:41;;;;;;;25.90;8.75;;;-6.70;100.00;;;;;;4988729;28;20050;-77
2023/02/07 05:04:08;;;;;;;25.45;7.47;;;-6.70;100.00;;;;;;4989364;28;20066;-78
2023/02/07 05:06:35;;;;;;;28.92;9.65;;;-6.70;100.00;;;;;;4992692;28;20057;-77
2023/02/07 05:09:02;;;;;;;31.35;10.85;;;-6.70;100.00;;;;;;4989734;28;20038;-77
2023/02/07 05:11:29;;;;;;;26.38;8.23;;;-6.70;100.00;;;;;;4989394;28;20049;-77
2023/02/07 05:13:56;;;;;;;29.20;8.95;;;-6.70;100.00;;;;;;5006243;28;20596;-77
2023/02/07 05:16:22;;;;;;;31.65;8.57;;;-6.60;100.00;;;;;;5006745;28;20153;-77
2023/02/07 05:18:49;;;;;;;26.45;9.60;;;-6.60;100.00;;;;;;4991533;28;20372;-77
2023/02/07 05:21:16;;;;;;;26.02;9.40;;;-6.50;100.00;;;;;;4995810;28;20054;-78
2023/02/07 05:23:43;;;;;;;29.42;10.98;;;-6.60;100.00;;;;;;5010009;28;20052;-76
2023/02/07 05:26:10;;;;;;;28.20;11.02;;;-6.60;100.00;;;;;;4990990;28;20058;-76
2023/02/07 05:28:36;;;;;;;27.75;10.50;;;-6.60;100.00;;;;;;4989258;28;20046;-75
2023/02/07 05:31:04;;;;;;;41.88;13.13;;;-6.60;100.00;;;;;;4989289;28;20065;-75
2023/02/07 05:33:30;;;;;;;40.42;12.20;;;-6.50;100.00;;;;;;4990712;28;20394;-76
2023/02/07 05:36:00;;;;;;;34.40;10.77;;;-6.50;100.00;;;;;;4988415;28;20083;-76
2023/02/07 05:38:27;;;;;;;30.70;11.68;;;-6.50;100.00;;;;;;4988761;28;20469;-76
2023/02/07 05:40:54;;;;;;;31.08;10.18;;;-6.50;100.00;;;;;;5005486;28;20423;-76
2023/02/07 05:43:21;;;;;;;31.88;10.75;;;-6.40;100.00;;;;;;5006350;28;20065;-76
2023/02/07 05:45:48;;;;;;;28.35;10.02;;;-6.40;100.00;;;;;;4991084;28;20410;-76
2023/02/07 05:48:15;;;;;;;43.33;12.55;;;-6.40;100.00;;;;;;4994871;28;20128;-76
2023/02/07 05:50:42;;;;;;;42.08;12.60;;;-6.40;100.00;;;;;;4988738;28;20064;-75
2023/02/07 05:53:09;;;;;;;30.70;10.95;;;-6.30;100.00;;;;;;4994650;28;20053;-76
2023/02/07 05:55:36;;;;;;;35.53;13.52;;;-6.30;100.00;;;;;;4987758;28;20046;-76
2023/02/07 05:58:03;;;;;;;40.15;12.82;;;-6.30;100.00;;;;;;5005802;28;20454;-76
2023/02/07 06:00:30;;;;;;;29.70;10.75;;;-6.30;100.00;;;;;;5005750;28;20415;-76
2023/02/07 06:02:57;;;;;;;37.25;11.15;;;-6.30;100.00;;;;;;5006315;28;20050;-76
2023/02/07 06:05:30;;;;;;;34.38;11.32;;;-6.30;100.00;;;;;;5005837;28;20061;-75
2023/02/07 06:07:57;;;;;;;35.90;11.48;;;-6.30;100.00;;;;;;5006248;28;20058;-75
2023/02/07 06:10:24;;;;;;;26.98;10.32;;;-6.40;100.00;;;;;;5005485;28;20422;-76
2023/02/07 06:12:51;;;;;;;29.95;9.15;;;-6.40;100.00;;;;;;4990126;28;20050;-76
2023/02/07 06:15:18;;;;;;;44.25;10.50;;;-6.40;100.00;;;;;;5005283;28;20060;-76
2023/02/07 06:17:44;;;;;;;32.55;11.32;;;-6.50;100.00;;;;;;4991187;28;20062;-76
2023/02/07 06:20:11;;;;;;;49.78;15.57;;;-6.50;100.00;;;;;;4988146;28;20514;-76
2023/02/07 06:22:38;;;;;;;44.25;15.57;;;-6.50;100.00;;;;;;4989766;28;20054;-76
2023/02/07 06:25:10;;;;;;;49.20;18.90;;;-6.50;100.00;;;;;;4990687;28;20062;-76
2023/02/07 06:27:40;;;;;;;53.17;19.38;;;-6.50;100.00;;;;;;5011143;28;20057;-76
2023/02/07 06:30:10;;;;;;;67.38;21.33;;;-6.60;100.00;;;;;;4987236;28;20053;-75
2023/02/07 06:32:37;;;;;;;80.13;25.60;;;-6.60;100.00;;;;;;4988109;28;20054;-76
2023/02/07 06:35:05;;;;;;;64.00;20.13;;;-6.60;100.00;;;;;;4988881;28;20046;-76
2023/02/07 06:37:32;;;;;;;52.72;20.13;;;-6.50;100.00;;;;;;4988156;28;20049;-76
2023/02/07 06:39:59;;;;;;;52.20;18.88;;;-6.60;100.00;;;;;;4989398;28;20210;-76
2023/02/07 06:42:25;;;;;;;52.92;17.17;;;-6.50;100.00;;;;;;4988586;28;20041;-75
2023/02/07 06:44:52;;;;;;;36.25;13.60;;;-6.50;100.00;;;;;;5005649;28;20050;-75
2023/02/07 06:47:19;;;;;;;70.15;17.88;;;-6.50;100.00;;;;;;5005717;28;20429;-75
2023/02/07 06:49:46;;;;;;;41.35;14.50;;;-6.50;100.00;;;;;;4991339;28;20077;-76
2023/02/07 06:52:14;;;;;;;43.80;12.45;;;-6.50;100.00;;;;;;5006047;28;20410;-75
2023/02/07 06:54:40;;;;;;;43.35;14.05;;;-6.50;100.00;;;;;;5004898;28;20041;-74
2023/02/07 06:57:08;;;;;;;41.88;13.80;;;-6.50;100.00;;;;;;4988036;28;20048;-75
2023/02/07 06:59:35;;;;;;;46.40;14.82;;;-6.50;100.00;;;;;;5004265;28;20060;-75
2023/02/07 07:02:02;;;;;;;29.65;12.30;;;-6.50;100.00;;;;;;5005854;28;20065;-75
2023/02/07 07:04:29;;;;;;;43.30;14.00;;;-6.40;100.00;;;;;;5004134;28;20076;-76
2023/02/07 07:06:57;;;;;;;39.85;13.75;;;-6.40;100.00;;;;;;4987858;28;20089;-76
2023/02/07 07:09:23;;;;;;;31.33;12.32;;;-6.40;100.00;;;;;;5004228;28;20821;-75
2023/02/07 07:11:50;;;;;;;38.00;13.85;;;-6.40;100.00;;;;;;4991447;28;20049;-76
2023/02/07 07:14:17;;;;;;;60.10;13.70;;;-6.40;100.00;;;;;;4993451;28;20045;-75
2023/02/07 07:16:44;;;;;;;39.38;12.32;;;-6.40;100.00;;;;;;4988107;28;20061;-75
2023/02/07 07:19:12;;;;;;;37.28;11.65;;;-6.30;100.00;;;;;;4984521;28;20510;-76
2023/02/07 07:21:39;;;;;;;59.95;14.43;;;-6.30;100.00;;;;;;4987258;28;20566;-77
2023/02/07 07:24:05;;;;;;;39.85;13.13;;;-6.30;100.00;;;;;;4977812;28;20077;-76
2023/02/07 07:26:33;;;;;;;43.80;14.15;;;-6.20;100.00;;;;;;4986526;28;20420;-76
2023/02/07 07:29:15;;;;;;;45.42;14.20;;;-6.20;100.00;;;;;;4988036;28;20352;-76
2023/02/07 07:31:42;;;;;;;44.72;13.50;;;-6.10;100.00;;;;;;4987418;28;20042;-77
2023/02/07 07:34:09;;;;;;;41.97;14.48;;;-6.10;100.00;;;;;;5003723;28;20054;-76
2023/02/07 07:36:36;;;;;;;36.65;12.15;;;-6.00;100.00;;;;;;5004500;28;20554;-77
2023/02/07 07:39:04;;;;;;;38.65;11.55;;;-6.00;100.00;;;;;;5004066;28;20060;-77
2023/02/07 07:41:31;;;;;;;41.45;15.05;;;-5.90;100.00;;;;;;4992203;28;20090;-77
2023/02/07 07:43:57;;;;;;;43.50;15.00;;;-5.90;100.00;;;;;;5007577;28;20060;-76
2023/02/07 07:46:24;;;;;;;42.15;12.45;;;-5.80;100.00;;;;;;4986724;28;20076;-76
2023/02/07 07:48:51;;;;;;;44.10;14.07;;;-5.70;100.00;;;;;;4991085;28;20411;-76
2023/02/07 07:51:18;;;;;;;38.38;13.10;;;-5.60;100.00;;;;;;4985838;28;20172;-75
2023/02/07 07:53:45;;;;;;;34.08;12.90;;;-5.60;100.00;;;;;;4986594;28;20050;-76
2023/02/07 07:56:12;;;;;;;43.13;14.38;;;-5.50;100.00;;;;;;5004147;28;20050;-76
2023/02/07 07:58:39;;;;;;;44.60;14.23;;;-5.40;100.00;;;;;;4986047;28;20057;-76
2023/02/07 08:01:05;;;;;;;44.88;14.45;;;-5.30;100.00;;;;;;4985683;28;20050;-76
2023/02/07 08:03:33;;;;;;;41.88;13.93;;;-5.20;100.00;;;;;;4986206;28;20077;-76
2023/02/07 08:06:00;;;;;;;43.95;14.52;;;-5.10;100.00;;;;;;5003739;28;20057;-76
2023/02/07 08:08:27;;;;;;;70.68;17.45;;;-5.00;100.00;;;;;;5003972;28;20046;-76
2023/02/07 08:10:54;;;;;;;51.13;15.55;;;-4.80;100.00;;;;;;4985406;28;20048;-76
2023/02/07 08:13:20;;;;;;;57.10;14.68;;;-4.70;100.00;;;;;;4986723;28;20061;-76
2023/02/07 08:15:48;;;;;;;58.90;18.70;;;-4.60;100.00;;;;;;4985682;28;20050;-76
2023/02/07 08:18:15;;;;;;;50.15;16.52;;;-4.50;100.00;;;;;;4985800;28;20427;-76
2023/02/07 08:20:41;;;;;;;60.92;20.05;;;-4.40;100.00;;;;;;4985598;28;20054;-76
2023/02/07 08:23:08;;;;;;;63.28;19.33;;;-4.30;100.00;;;;;;5012555;28;20078;-76
2023/02/07 08:25:35;;;;;;;57.70;18.70;;;-4.10;100.00;;;;;;5010982;28;20050;-77
2023/02/07 08:28:03;;;;;;;58.63;20.55;;;-3.70;100.00;;;;;;4986261;28;20077;-76
2023/02/07 08:30:30;;;;;;;67.57;20.35;;;-3.30;100.00;;;;;;4980987;28;20048;-76
2023/02/07 08:32:57;;;;;;;62.50;20.75;;;-3.00;100.00;;;;;;4992443;28;20077;-76
2023/02/07 08:35:25;;;;;;;61.83;19.85;;;-3.00;100.00;;;;;;4985202;28;20149;-76
2023/02/07 08:37:54;;;;;;;64.85;21.73;;;-2.90;100.00;;;;;;4984627;28;20580;-76
2023/02/07 08:40:21;;;;;;;74.25;22.35;;;-3.00;100.00;;;;;;4984385;28;20058;-76
2023/02/07 08:42:48;;;;;;;71.45;23.45;;;-2.90;100.00;;;;;;4985989;28;20058;-76
2023/02/07 08:45:16;;;;;;;78.80;24.85;;;-2.90;100.00;;;;;;4988388;28;20049;-75
2023/02/07 08:47:44;;;;;;;63.95;23.20;;;-2.80;100.00;;;;;;4985774;28;20045;-76
2023/02/07 08:50:13;;;;;;;73.63;23.77;;;-2.80;100.00;;;;;;5002283;28;20050;-75
2023/02/07 08:52:40;;;;;;;85.10;26.67;;;-2.70;100.00;;;;;;4985691;28;20686;-76
2023/02/07 08:55:09;;;;;;;72.40;24.98;;;-2.70;100.00;;;;;;5002447;28;20060;-76
2023/02/07 08:57:36;;;;;;;72.15;23.95;;;-2.60;100.00;;;;;;4985262;28;20053;-75
2023/02/07 09:00:06;;;;;;;78.43;24.10;;;-2.60;100.00;;;;;;5000571;28;20050;-75
2023/02/07 09:02:33;;;;;;;79.00;24.42;;;-2.50;100.00;;;;;;4986057;28;20093;-75
2023/02/07 09:05:00;;;;;;;72.82;23.58;;;-2.40;100.00;;;;;;4985581;28;20145;-76
2023/02/07 09:07:27;;;;;;;78.43;25.92;;;-2.40;100.00;;;;;;4985590;28;20041;-75
2023/02/07 09:09:54;;;;;;;88.72;26.92;;;-2.30;100.00;;;;;;4991531;28;20096;-75
2023/02/07 09:12:21;;;;;;;75.47;26.08;;;-2.20;100.00;;;;;;4985452;28;20399;-75
2023/02/07 09:14:48;;;;;;;81.00;26.70;;;-2.00;100.00;;;;;;4984752;28;20062;-75
2023/02/07 09:17:15;;;;;;;80.57;26.98;;;-1.90;100.00;;;;;;5002618;28;20147;-75
2023/02/07 09:19:42;;;;;;;79.78;27.33;;;-1.80;100.00;;;;;;5002591;28;20317;-75
2023/02/07 09:22:08;;;;;;;76.18;26.00;;;-1.80;100.00;;;;;;5003091;28;20053;-75
2023/02/07 09:24:35;;;;;;;77.03;25.63;;;-1.70;100.00;;;;;;5001118;28;20062;-76
2023/02/07 09:27:02;;;;;;;74.00;25.55;;;-1.70;100.00;;;;;;4985078;28;20053;-75
2023/02/07 09:29:29;;;;;;;75.50;25.48;;;-1.60;100.00;;;;;;4983773;28;20038;-76
2023/02/07 09:31:56;;;;;;;75.07;25.65;;;-1.40;100.00;;;;;;4986933;28;20129;-76
2023/02/07 09:34:24;;;;;;;82.35;28.58;;;-1.20;100.00;;;;;;4985319;28;20447;-75
2023/02/07 09:36:50;;;;;;;75.90;28.02;;;-0.30;99.40;;;;;;5002980;28;20133;-76
2023/02/07 09:39:18;;;;;;;77.57;27.20;;;0.10;97.40;;;;;;4984676;28;20058;-76
2023/02/07 09:42:05;;;;;;;78.22;26.50;;;0.60;92.80;;;;;;4985233;28;20169;-75
2023/02/07 09:44:50;;;;;;;72.03;26.77;;;0.60;92.30;;;;;;4998432;28;20053;-75
2023/02/07 09:47:23;;;;;;;73.55;28.55;;;0.80;94.30;;;;;;4984686;28;20053;-76
2023/02/07 09:50:07;;;;;;;68.72;25.38;;;2.00;89.60;;;;;;5006015;28;20160;-76
2023/02/07 09:52:48;;;;;;;61.35;23.00;;;2.40;84.00;;;;;;5001377;28;20038;-76
2023/02/07 09:55:29;;;;;;;59.10;22.65;;;2.00;84.50;;;;;;4988410;28;20747;-76
2023/02/07 09:58:22;;;;;;;63.95;24.67;;;1.50;85.70;;;;;;5006250;28;20041;-76
2023/02/07 10:01:03;;;;;;;59.90;21.50;;;1.20;87.20;;;;;;4959277;28;20048;-76
2023/02/07 10:03:32;;;;;;;56.17;22.85;;;0.90;88.50;;;;;;4981132;28;20446;-76
2023/02/07 10:06:11;;;;;;;60.55;23.20;;;0.80;89.10;;;;;;5005031;28;20057;-76
2023/02/07 10:08:48;;;;;;;59.72;22.38;;;0.80;89.90;;;;;;4987775;28;20058;-76
2023/02/07 10:11:45;;;;;;;60.58;22.52;;;0.90;90.70;;;;;;4987879;28;20498;-76
2023/02/07 10:14:31;;;;;;;55.63;21.15;;;1.00;89.30;;;;;;5005210;28;20458;-76
2023/02/07 10:17:35;;;;;;;57.00;21.77;;;0.90;89.20;;;;;;4993486;28;20045;-76
2023/02/07 10:20:05;;;;;;;58.30;20.35;;;1.30;89.60;;;;;;4984544;28;20390;-76
2023/02/07 10:22:47;;;;;;;48.35;21.20;;;1.70;86.30;;;;;;5006325;28;20053;-76
2023/02/07 10:25:33;;;;;;;50.67;22.05;;;1.70;86.10;;;;;;5004811;28;20514;-77
2023/02/07 10:27:59;;;;;;;;;;;2.20;85.40;;;;;;5005461;28;20406;-77
2023/02/07 10:30:30;;;;;;;48.78;19.50;;;2.80;82.90;;;;;;4987264;28;19926;-76
2023/02/07 10:33:07;;;;;;;58.25;21.73;;;3.00;77.60;;;;;;4988201;28;20124;-77
2023/02/07 10:35:36;;;;;;;50.60;20.67;;;3.00;79.60;;;;;;4983637;28;20798;-77
2023/02/07 10:38:03;;;;;;;58.55;21.30;;;2.90;78.40;;;;;;4988555;28;20042;-77
2023/02/07 10:40:46;;;;;;;49.30;20.35;;;2.80;78.70;;;;;;5006381;28;20054;-78
2023/02/07 10:43:26;;;;;;;48.15;19.95;;;2.70;79.50;;;;;;5004302;28;20537;-77
2023/02/07 10:46:01;;;;;;;49.08;19.70;;;3.30;77.00;;;;;;5004490;28;20483;-77
2023/02/07 10:48:32;;;;;;;44.88;19.88;;;4.60;73.20;;;;;;4981202;28;20136;-77
2023/02/07 10:51:24;;;;;;;42.33;19.77;;;5.40;71.00;;;;;;5003302;28;20046;-77
2023/02/07 10:54:11;;;;;;;42.75;19.45;;;6.40;70.30;;;;;;4989833;28;20060;-77
2023/02/07 10:56:46;;;;;;;40.15;19.00;;;7.30;64.40;;;;;;5001754;28;20053;-78
2023/02/07 10:59:45;;;;;;;45.55;19.02;;;7.10;64.80;;;;;;4985636;28;20495;-78
2023/02/07 11:02:30;;;;;;;42.67;19.58;;;7.10;66.40;;;;;;5002884;28;20057;-78
2023/02/07 11:05:14;;;;;;;43.90;19.75;;;7.70;64.10;;;;;;5004704;28;20112;-78
2023/02/07 11:07:55;;;;;;;35.63;17.35;;;8.80;64.50;;;;;;5004626;28;20403;-78
2023/02/07 11:10:37;;;;;;;33.60;16.98;;;9.60;60.40;;;;;;5004085;28;20046;-79
2023/02/07 11:13:12;;;;;;;34.88;16.35;;;9.40;58.80;;;;;;5004890;28;20046;-78
2023/02/07 11:16:05;;;;;;;34.50;16.50;;;9.40;58.20;;;;;;5005773;28;20057;-78
2023/02/07 11:18:54;;;;;;;34.90;16.73;;;8.70;56.80;;;;;;4999973;28;20050;-79
2023/02/07 11:21:34;;;;;;;33.28;15.07;;;8.30;59.80;;;;;;4986771;28;20050;-78
2023/02/07 11:24:24;;;;;;;30.75;15.73;;;8.30;58.30;;;;;;5001135;28;20052;-78
2023/02/07 11:26:54;;;;;;;28.83;15.45;;;7.40;59.00;;;;;;4985678;28;20168;-78
2023/02/07 11:29:23;;;;;;;32.80;15.65;;;8.00;60.00;;;;;;4987193;28;20060;-78
2023/02/07 11:31:53;;;;;;;27.50;14.15;;;9.10;56.90;;;;;;4986778;28;20046;-78
2023/02/07 11:34:46;;;;;;;26.48;13.68;;;10.00;53.70;;;;;;5004165;28;20153;-78
2023/02/07 11:37:16;;;;;;;28.33;13.10;;;10.30;51.20;;;;;;5002540;28;20080;-78
2023/02/07 11:39:44;;;;;;;31.92;14.68;;;10.00;52.30;;;;;;5003361;28;20089;-78
2023/02/07 11:42:22;;;;;;;25.05;13.88;;;9.70;52.00;;;;;;5004436;28;20064;-79
2023/02/07 11:44:50;;;;;;;26.70;13.23;;;9.50;52.90;;;;;;4986409;28;20519;-77
2023/02/07 11:47:28;;;;;;;28.10;14.35;;;8.80;52.40;;;;;;5004839;28;20054;-78
2023/02/07 11:49:58;;;;;;;31.15;14.55;;;8.50;54.50;;;;;;4999434;28;20061;-78
2023/02/07 11:52:26;;;;;;;31.27;14.70;;;8.60;55.70;;;;;;5003754;28;20054;-78
2023/02/07 11:54:56;;;;;;;36.13;14.77;;;8.60;52.60;;;;;;5003738;28;20042;-78
2023/02/07 11:57:26;;;;;;;38.60;15.63;;;8.40;54.80;;;;;;5003631;28;20484;-78
2023/02/07 12:00:15;;;;;;;34.30;14.75;;;7.80;55.10;;;;;;4985951;28;20049;-78
2023/02/07 12:02:51;;;;;;;33.08;15.45;;;7.30;56.50;;;;;;5003137;28;20461;-78
2023/02/07 12:05:25;;;;;;;31.17;15.10;;;7.00;57.20;;;;;;4985935;28;20148;-79
2023/02/07 12:07:58;;;;;;;34.60;15.60;;;6.60;58.50;;;;;;5001994;28;20049;-78
2023/02/07 12:10:34;;;;;;;34.28;15.82;;;6.60;61.30;;;;;;4985176;28;20037;-79
2023/02/07 12:13:07;;;;;;;34.17;16.17;;;6.80;60.20;;;;;;4985718;28;20053;-76
2023/02/07 12:15:36;;;;;;;29.08;14.80;;;6.70;57.50;;;;;;4982974;28;20045;-78
2023/02/07 12:18:15;;;;;;;32.50;15.32;;;6.70;60.40;;;;;;5004222;28;20081;-78
2023/02/07 12:20:54;;;;;;;31.75;15.63;;;7.00;58.90;;;;;;5003191;28;20052;-77
2023/02/07 12:23:39;;;;;;;31.20;14.07;;;6.80;57.00;;;;;;5003159;28;20061;-78
2023/02/07 12:26:22;;;;;;;35.03;15.57;;;6.30;59.00;;;;;;4986524;28;20128;-78
2023/02/07 12:29:08;;;;;;;37.85;15.90;;;5.80;60.10;;;;;;4997531;28;20050;-78
2023/02/07 12:31:56;;;;;;;34.95;15.63;;;5.50;59.90;;;;;;4983221;28;20064;-78
2023/02/07 12:34:40;;;;;;;33.22;15.60;;;5.00;61.30;;;;;;4984529;28;20062;-77
2023/02/07 12:37:31;;;;;;;35.20;14.70;;;4.80;62.20;;;;;;5003942;28;20069;-77
2023/02/07 12:40:03;;;;;;;35.22;15.05;;;4.70;64.20;;;;;;4985225;28;20056;-77
2023/02/07 12:42:42;;;;;;;37.00;15.52;;;5.00;61.80;;;;;;4988535;28;20054;-78
2023/02/07 12:45:17;;;;;;;33.67;16.40;;;5.10;61.80;;;;;;4999629;28;20487;-77
2023/02/07 12:47:59;;;;;;;33.67;15.73;;;5.40;62.20;;;;;;4988283;28;20096;-77